createdAt,value
2018-11-29T00:02:25.800Z,55.25
2018-11-29T00:04:53.935Z,59.90
2018-11-29T00:07:22.119Z,56.58
2018-11-29T00:09:50.282Z,53.15
2018-11-29T00:12:18.427Z,67.90
2018-11-29T00:14:46.589Z,61.30
2018-11-29T00:17:14.711Z,61.75
2018-11-29T00:19:42.901Z,67.58
2018-11-29T00:22:11.051Z,56.70
2018-11-29T00:24:39.194Z,58.48
2018-11-29T00:27:07.329Z,59.58
2018-11-29T00:29:35.471Z,62.25
2018-11-29T00:32:03.627Z,60.20
2018-11-29T00:34:31.775Z,59.93
2018-11-29T00:36:59.937Z,60.80
2018-11-29T00:39:28.149Z,65.15
2018-11-29T00:41:56.330Z,56.80
2018-11-29T00:44:24.471Z,59.50
2018-11-29T00:46:52.763Z,63.48
2018-11-29T00:49:20.925Z,61.85
2018-11-29T00:51:49.063Z,62.67
2018-11-29T00:54:17.187Z,59.50
2018-11-29T00:56:45.346Z,66.62
2018-11-29T00:59:13.452Z,65.42
2018-11-29T01:02:13.375Z,62.83
2018-11-29T01:04:41.488Z,61.37
2018-11-29T01:07:09.590Z,60.83
2018-11-29T01:09:37.826Z,59.25
2018-11-29T01:12:06.406Z,60.95
2018-11-29T01:14:34.561Z,56.83
2018-11-29T01:17:02.749Z,62.85
2018-11-29T01:19:30.868Z,70.83
2018-11-29T01:21:58.997Z,59.08
2018-11-29T01:24:27.241Z,63.25
2018-11-29T01:26:55.423Z,61.13
2018-11-29T01:29:23.741Z,65.62
2018-11-29T01:31:51.865Z,60.52
2018-11-29T01:34:20.075Z,66.02
2018-11-29T01:36:48.236Z,55.75
2018-11-29T01:39:16.405Z,57.25
2018-11-29T01:41:44.507Z,60.80
2018-11-29T01:44:12.623Z,63.60
2018-11-29T01:46:40.829Z,62.93
2018-11-29T01:49:09.007Z,68.87
2018-11-29T01:51:37.303Z,58.87
2018-11-29T01:54:05.479Z,53.45
2018-11-29T01:56:33.653Z,60.65
2018-11-29T01:59:01.831Z,58.68
2018-11-29T02:01:29.971Z,67.35
2018-11-29T02:03:58.155Z,53.78
2018-11-29T02:06:26.312Z,54.80
2018-11-29T02:08:54.517Z,64.30
2018-11-29T02:11:22.653Z,55.40
2018-11-29T02:13:50.939Z,54.18
2018-11-29T02:16:19.143Z,57.67
2018-11-29T02:18:47.251Z,59.25
2018-11-29T02:21:15.436Z,56.42
2018-11-29T02:23:43.588Z,59.80
2018-11-29T02:26:11.697Z,55.15
2018-11-29T02:28:43.216Z,58.20
2018-11-29T02:31:11.391Z,60.10
2018-11-29T02:33:39.530Z,52.05
2018-11-29T02:36:07.624Z,53.78
2018-11-29T02:38:36.109Z,58.55
2018-11-29T02:41:04.541Z,53.02
2018-11-29T02:43:32.654Z,46.92
2018-11-29T02:46:00.831Z,57.10
2018-11-29T02:48:29.029Z,53.17
2018-11-29T02:50:57.346Z,44.75
2018-11-29T02:53:25.457Z,62.10
2018-11-29T02:55:53.872Z,54.13
2018-11-29T02:58:22.088Z,52.23
2018-11-29T03:00:50.275Z,52.10
2018-11-29T03:03:18.419Z,47.40
2018-11-29T03:05:46.543Z,58.40
2018-11-29T03:08:14.759Z,50.03
2018-11-29T03:10:42.968Z,51.08
2018-11-29T03:13:11.061Z,52.08
2018-11-29T03:15:39.151Z,57.53
2018-11-29T03:18:07.334Z,53.38
2018-11-29T03:20:35.543Z,49.00
2018-11-29T03:23:03.731Z,51.95
2018-11-29T03:25:31.847Z,55.50
2018-11-29T03:27:59.984Z,51.30
2018-11-29T03:30:28.156Z,54.73
2018-11-29T03:32:56.262Z,55.15
2018-11-29T03:35:24.447Z,49.10
2018-11-29T03:37:52.536Z,52.60
2018-11-29T03:40:20.699Z,55.40
2018-11-29T03:42:48.886Z,52.03
2018-11-29T03:45:17.281Z,52.85
2018-11-29T03:47:45.775Z,50.92
2018-11-29T03:50:14.950Z,52.50
2018-11-29T03:52:43.047Z,45.15
2018-11-29T03:55:11.504Z,50.35
2018-11-29T03:57:39.971Z,48.10
2018-11-29T04:00:10.497Z,43.80
2018-11-29T04:02:38.782Z,63.15
2018-11-29T04:05:07.009Z,46.58
2018-11-29T04:07:35.098Z,46.08
2018-11-29T04:10:03.305Z,49.38
2018-11-29T04:12:31.510Z,47.95
2018-11-29T04:14:59.849Z,50.63
2018-11-29T04:17:28.117Z,47.73
2018-11-29T04:19:56.381Z,45.60
2018-11-29T04:22:24.559Z,46.70
2018-11-29T04:24:52.705Z,50.17
2018-11-29T04:27:20.978Z,48.78
2018-11-29T04:29:49.184Z,46.50
2018-11-29T04:32:17.525Z,47.20
2018-11-29T04:34:45.623Z,47.67
2018-11-29T04:37:13.753Z,41.53
2018-11-29T04:39:43.516Z,46.60
2018-11-29T04:42:11.763Z,45.35
2018-11-29T04:44:39.906Z,50.67
2018-11-29T04:47:08.064Z,42.78
2018-11-29T04:49:36.187Z,45.25
2018-11-29T04:52:04.642Z,44.30
2018-11-29T04:54:32.761Z,46.68
2018-11-29T04:57:01.018Z,45.70
2018-11-29T04:59:29.176Z,58.23
2018-11-29T05:01:57.302Z,43.10
2018-11-29T05:04:25.417Z,43.20
2018-11-29T05:06:53.727Z,44.10
2018-11-29T05:09:21.865Z,48.68
2018-11-29T05:11:50.186Z,44.03
2018-11-29T05:14:18.400Z,46.98
2018-11-29T05:16:46.541Z,46.13
2018-11-29T05:19:14.926Z,48.25
2018-11-29T05:21:43.067Z,54.30
2018-11-29T05:24:11.232Z,48.13
2018-11-29T05:26:39.453Z,48.75
2018-11-29T05:29:07.579Z,43.75
2018-11-29T05:31:35.724Z,47.45
2018-11-29T05:34:03.883Z,50.88
2018-11-29T05:36:32.031Z,50.83
2018-11-29T05:39:00.192Z,45.65
2018-11-29T05:41:28.434Z,49.70
2018-11-29T05:43:56.584Z,38.67
2018-11-29T05:46:24.727Z,46.37
2018-11-29T05:48:52.834Z,47.70
2018-11-29T05:51:20.954Z,43.38
2018-11-29T05:53:49.090Z,45.43
2018-11-29T05:56:17.272Z,39.42
2018-11-29T05:58:45.395Z,48.10
2018-11-29T06:01:45.020Z,39.35
2018-11-29T06:04:13.326Z,36.80
2018-11-29T06:06:41.455Z,40.20
2018-11-29T06:09:10.480Z,40.20
2018-11-29T06:11:39.660Z,38.85
2018-11-29T06:14:08.354Z,39.90
2018-11-29T06:16:37.417Z,39.65
2018-11-29T06:19:06.908Z,44.40
2018-11-29T06:21:35.044Z,43.13
2018-11-29T06:24:03.392Z,44.53
2018-11-29T06:26:31.576Z,41.90
2018-11-29T06:28:59.738Z,47.62
2018-11-29T06:31:27.978Z,35.38
2018-11-29T06:33:56.177Z,47.83
2018-11-29T06:36:24.310Z,38.05
2018-11-29T06:38:52.488Z,39.10
2018-11-29T06:41:20.674Z,39.48
2018-11-29T06:43:48.854Z,45.48
2018-11-29T06:46:17.076Z,42.38
2018-11-29T06:48:45.296Z,40.15
2018-11-29T06:51:13.460Z,42.70
2018-11-29T06:53:47.109Z,37.88
2018-11-29T06:56:15.244Z,38.50
2018-11-29T06:58:43.436Z,43.80
2018-11-29T07:01:11.596Z,48.48
2018-11-29T07:03:39.725Z,37.90
2018-11-29T07:06:07.965Z,30.17
2018-11-29T07:08:36.143Z,38.35
2018-11-29T07:11:04.437Z,39.10
2018-11-29T07:13:32.628Z,41.45
2018-11-29T07:16:00.884Z,38.67
2018-11-29T07:18:29.164Z,36.53
2018-11-29T07:21:08.606Z,35.38
2018-11-29T07:23:36.737Z,43.65
2018-11-29T07:26:05.100Z,36.68
2018-11-29T07:28:33.342Z,38.80
2018-11-29T07:31:01.490Z,38.05
2018-11-29T07:33:29.649Z,36.00
2018-11-29T07:35:57.796Z,33.95
2018-11-29T07:38:25.914Z,42.60
2018-11-29T07:40:54.448Z,40.23
2018-11-29T07:43:22.701Z,39.53
2018-11-29T07:45:50.875Z,40.33
2018-11-29T07:48:19.054Z,36.98
2018-11-29T07:50:47.243Z,36.63
2018-11-29T07:53:16.307Z,34.55
2018-11-29T07:55:43.720Z,41.30
2018-11-29T07:58:11.911Z,42.55
2018-11-29T08:00:40.095Z,42.15
2018-11-29T08:03:08.302Z,36.45
2018-11-29T08:05:36.502Z,34.00
2018-11-29T08:08:04.970Z,43.42
2018-11-29T08:10:33.205Z,37.20
2018-11-29T08:13:01.345Z,35.48
2018-11-29T08:15:29.685Z,34.75
2018-11-29T08:17:57.854Z,36.95
2018-11-29T08:20:26.040Z,36.58
2018-11-29T08:22:54.189Z,35.65
2018-11-29T08:25:22.337Z,37.03
2018-11-29T08:27:50.507Z,36.68
2018-11-29T08:30:18.659Z,37.03
2018-11-29T08:32:46.827Z,34.05
2018-11-29T08:35:15.809Z,37.85
2018-11-29T08:37:45.844Z,33.92
2018-11-29T08:40:21.355Z,42.00
2018-11-29T08:42:49.530Z,41.68
2018-11-29T08:45:17.803Z,34.83
2018-11-29T08:47:46.439Z,36.55
2018-11-29T08:50:15.387Z,36.25
2018-11-29T08:52:44.479Z,30.48
2018-11-29T08:55:13.848Z,36.83
2018-11-29T08:57:42.044Z,33.92
2018-11-29T09:00:13.612Z,34.70
2018-11-29T09:02:41.792Z,42.05
2018-11-29T09:05:10.894Z,32.88
2018-11-29T09:07:39.110Z,34.00
2018-11-29T09:10:12.182Z,32.73
2018-11-29T09:12:40.332Z,34.60
2018-11-29T09:15:11.690Z,38.20
2018-11-29T09:17:40.096Z,27.60
2018-11-29T09:20:12.623Z,29.87
2018-11-29T09:22:40.854Z,34.83
2018-11-29T09:25:13.171Z,38.98
2018-11-29T09:27:41.359Z,40.20
2018-11-29T09:30:15.850Z,35.85
2018-11-29T09:32:44.530Z,35.28
2018-11-29T09:35:12.813Z,33.00
2018-11-29T09:37:41.136Z,48.70
2018-11-29T09:40:12.268Z,35.08
2018-11-29T09:42:40.577Z,35.45
2018-11-29T09:45:11.333Z,37.28
2018-11-29T09:47:39.558Z,35.35
2018-11-29T09:50:10.226Z,38.78
2018-11-29T09:52:38.940Z,34.55
2018-11-29T09:55:07.852Z,32.23
2018-11-29T09:57:36.080Z,39.78
2018-11-29T10:00:06.340Z,32.80
2018-11-29T10:02:34.539Z,31.52
2018-11-29T10:05:02.765Z,43.10
2018-11-29T10:07:30.970Z,45.00
2018-11-29T10:09:59.202Z,30.25
2018-11-29T10:12:27.455Z,37.03
2018-11-29T10:14:55.568Z,33.85
2018-11-29T10:17:23.777Z,38.53
2018-11-29T10:19:51.914Z,32.40
2018-11-29T10:22:20.318Z,36.05
2018-11-29T10:24:48.581Z,32.28
2018-11-29T10:27:16.813Z,32.40
2018-11-29T10:29:44.977Z,32.17
2018-11-29T10:32:13.130Z,34.25
2018-11-29T10:34:41.326Z,33.98
2018-11-29T10:37:09.611Z,36.00
2018-11-29T10:39:38.063Z,30.08
2018-11-29T10:42:06.288Z,37.73
2018-11-29T10:44:34.398Z,30.00
2018-11-29T10:47:02.801Z,41.28
2018-11-29T10:49:31.138Z,29.80
2018-11-29T10:51:59.344Z,36.98
2018-11-29T10:54:27.514Z,31.85
2018-11-29T10:56:55.733Z,34.13
2018-11-29T10:59:23.871Z,41.25
2018-11-29T11:01:57.818Z,34.65
2018-11-29T11:04:26.033Z,40.33
2018-11-29T11:06:54.195Z,33.98
2018-11-29T11:09:22.326Z,33.90
2018-11-29T11:11:50.682Z,30.77
2018-11-29T11:14:18.793Z,32.58
2018-11-29T11:16:47.864Z,35.92
2018-11-29T11:19:16.071Z,37.23
2018-11-29T11:21:44.202Z,33.38
2018-11-29T11:24:12.363Z,57.17
2018-11-29T11:26:40.516Z,35.23
2018-11-29T11:29:08.675Z,36.55
2018-11-29T11:31:36.830Z,43.13
2018-11-29T11:34:05.228Z,38.00
2018-11-29T11:36:33.420Z,29.45
2018-11-29T11:39:01.582Z,32.63
2018-11-29T11:41:29.809Z,35.30
2018-11-29T11:43:58.146Z,30.80
2018-11-29T11:46:26.344Z,30.35
2018-11-29T11:48:54.590Z,39.40
2018-11-29T11:51:22.790Z,41.50
2018-11-29T11:53:50.974Z,34.75
2018-11-29T11:56:19.344Z,27.42
2018-11-29T11:58:47.593Z,30.50
2018-11-29T12:01:15.787Z,30.55
2018-11-29T12:03:43.967Z,33.02
2018-11-29T12:06:12.283Z,32.00
2018-11-29T12:08:40.528Z,37.70
2018-11-29T12:11:08.816Z,32.42
2018-11-29T12:13:37.055Z,29.80
2018-11-29T12:16:05.454Z,32.38
2018-11-29T12:18:33.728Z,34.65
2018-11-29T12:21:02.095Z,27.42
2018-11-29T12:23:30.352Z,40.70
2018-11-29T12:25:58.526Z,30.92
2018-11-29T12:28:26.652Z,24.92
2018-11-29T12:30:54.777Z,32.20
2018-11-29T12:33:23.514Z,28.42
2018-11-29T12:35:51.716Z,32.83
2018-11-29T12:38:19.997Z,25.30
2018-11-29T12:40:48.282Z,27.98
2018-11-29T12:43:16.645Z,35.68
2018-11-29T12:45:44.908Z,34.80
2018-11-29T12:48:13.114Z,31.60
2018-11-29T12:50:41.598Z,29.42
2018-11-29T12:53:09.736Z,30.57
2018-11-29T12:55:41.575Z,27.85
2018-11-29T12:58:09.778Z,31.20
2018-11-29T13:00:38.080Z,26.73
2018-11-29T13:05:38.161Z,30.37
2018-11-29T13:08:07.252Z,33.88
2018-11-29T13:10:35.412Z,34.05
2018-11-29T13:13:03.705Z,25.82
2018-11-29T13:15:33.353Z,29.98
2018-11-29T13:18:03.265Z,26.95
2018-11-29T13:20:32.576Z,26.33
2018-11-29T13:22:59.744Z,26.82
2018-11-29T13:25:28.459Z,26.90
2018-11-29T13:27:56.752Z,29.32
2018-11-29T13:30:25.007Z,30.62
2018-11-29T13:32:56.584Z,27.50
2018-11-29T13:35:27.198Z,30.80
2018-11-29T13:37:58.345Z,30.55
2018-11-29T13:40:26.910Z,23.47
2018-11-29T13:42:55.118Z,25.23
2018-11-29T13:45:23.369Z,26.27
2018-11-29T13:47:51.487Z,27.37
2018-11-29T13:50:19.637Z,30.65
2018-11-29T13:52:47.959Z,26.07
2018-11-29T13:55:16.904Z,25.95
2018-11-29T13:57:46.170Z,35.30
2018-11-29T14:00:20.289Z,27.75
2018-11-29T14:02:54.549Z,25.65
2018-11-29T14:05:22.700Z,28.17
2018-11-29T14:07:50.885Z,29.35
2018-11-29T14:10:20.329Z,25.08
2018-11-29T14:12:49.576Z,28.87
2018-11-29T14:15:18.962Z,25.12
2018-11-29T14:17:47.130Z,20.82
2018-11-29T14:20:15.518Z,25.30
2018-11-29T14:22:43.683Z,27.75
2018-11-29T14:25:13.641Z,34.90
2018-11-29T14:27:42.962Z,25.02
2018-11-29T14:30:27.856Z,29.35
2018-11-29T14:32:59.220Z,22.65
2018-11-29T14:35:27.441Z,26.87
2018-11-29T14:37:55.634Z,25.00
2018-11-29T14:40:25.306Z,26.05
2018-11-29T14:42:53.854Z,32.30
2018-11-29T14:45:24.671Z,24.87
2018-11-29T14:47:52.872Z,21.17
2018-11-29T14:50:24.487Z,26.45
2018-11-29T14:52:52.883Z,22.10
2018-11-29T14:55:22.602Z,27.20
2018-11-29T14:57:50.760Z,24.60
2018-11-29T15:00:18.902Z,27.02
2018-11-29T15:02:47.097Z,26.68
2018-11-29T15:05:16.837Z,27.62
2018-11-29T15:07:45.039Z,30.68
2018-11-29T15:10:13.219Z,35.03
2018-11-29T15:12:43.223Z,23.40
2018-11-29T15:15:12.309Z,29.40
2018-11-29T15:17:41.432Z,25.15
2018-11-29T15:20:21.108Z,25.20
2018-11-29T15:22:50.350Z,37.10
2018-11-29T15:25:18.454Z,27.95
2018-11-29T15:27:46.625Z,32.03
2018-11-29T15:30:16.391Z,25.72
2018-11-29T15:32:44.585Z,24.12
2018-11-29T15:35:13.555Z,25.70
2018-11-29T15:37:42.372Z,31.55
2018-11-29T15:40:14.510Z,33.42
2018-11-29T15:42:43.259Z,36.10
2018-11-29T15:45:14.364Z,25.97
2018-11-29T15:47:43.128Z,29.63
2018-11-29T15:50:15.091Z,26.57
2018-11-29T15:52:43.452Z,21.82
2018-11-29T15:55:14.564Z,29.92
2018-11-29T15:57:42.761Z,21.75
2018-11-29T16:00:14.391Z,26.48
2018-11-29T16:02:42.921Z,27.02
2018-11-29T16:05:11.115Z,24.87
2018-11-29T16:07:39.469Z,29.65
2018-11-29T16:10:09.500Z,21.17
2018-11-29T16:12:38.009Z,29.45
2018-11-29T16:15:08.430Z,25.55
2018-11-29T16:17:36.626Z,28.23
2018-11-29T16:20:10.207Z,23.92
2018-11-29T16:22:38.387Z,27.82
2018-11-29T16:25:09.286Z,24.40
2018-11-29T16:27:37.509Z,27.87
2018-11-29T16:30:13.735Z,27.48
2018-11-29T16:32:42.446Z,26.90
2018-11-29T16:35:10.627Z,27.42
2018-11-29T16:37:38.860Z,26.05
2018-11-29T16:40:08.652Z,28.62
2018-11-29T16:42:36.943Z,24.98
2018-11-29T16:45:09.013Z,24.87
2018-11-29T16:47:37.313Z,26.62
2018-11-29T16:50:07.091Z,30.37
2018-11-29T16:52:35.377Z,28.57
2018-11-29T16:55:03.599Z,27.50
2018-11-29T16:57:31.899Z,26.95
2018-11-29T17:00:00.086Z,32.55
2018-11-29T17:02:28.224Z,24.43
2018-11-29T17:04:56.451Z,28.23
2018-11-29T17:07:24.615Z,25.30
2018-11-29T17:09:52.874Z,23.57
2018-11-29T17:12:22.236Z,26.15
2018-11-29T17:14:51.634Z,29.07
2018-11-29T17:17:19.892Z,32.42
2018-11-29T17:19:48.076Z,25.05
2018-11-29T17:22:16.379Z,27.10
2018-11-29T17:24:44.577Z,33.25
2018-11-29T17:27:12.811Z,27.17
2018-11-29T17:29:41.050Z,31.30
2018-11-29T17:32:09.192Z,27.35
2018-11-29T17:34:37.307Z,24.47
2018-11-29T17:37:05.598Z,25.48
2018-11-29T17:39:33.848Z,29.75
2018-11-29T17:42:02.035Z,25.95
2018-11-29T17:44:30.224Z,30.05
2018-11-29T17:46:58.404Z,25.12
2018-11-29T17:49:27.471Z,25.72
2018-11-29T17:51:55.736Z,21.55
2018-11-29T17:54:23.880Z,21.27
2018-11-29T17:56:52.187Z,23.75
2018-11-29T17:59:20.394Z,28.27
2018-11-29T18:01:48.584Z,31.23
2018-11-29T18:04:17.033Z,31.27
2018-11-29T18:06:45.237Z,30.80
2018-11-29T18:09:13.594Z,25.68
2018-11-29T18:11:41.744Z,27.50
2018-11-29T18:14:09.966Z,20.97
2018-11-29T18:16:38.621Z,19.90
2018-11-29T18:19:06.832Z,19.45
2018-11-29T18:21:34.981Z,20.88
2018-11-29T18:24:03.120Z,26.45
2018-11-29T18:26:31.814Z,22.02
2018-11-29T18:28:59.545Z,24.60
2018-11-29T18:31:27.784Z,21.60
2018-11-29T18:33:56.041Z,22.35
2018-11-29T18:36:24.197Z,19.77
2018-11-29T18:38:52.427Z,17.00
2018-11-29T18:41:20.664Z,19.23
2018-11-29T18:43:48.980Z,18.77
2018-11-29T18:46:17.338Z,20.40
2018-11-29T18:48:45.592Z,15.70
2018-11-29T18:51:13.776Z,20.05
2018-11-29T18:53:41.971Z,21.27
2018-11-29T18:56:10.223Z,19.05
2018-11-29T18:58:38.378Z,19.10
2018-11-29T19:01:06.999Z,16.20
2018-11-29T19:03:35.294Z,17.15
2018-11-29T19:06:03.506Z,16.50
2018-11-29T19:08:31.669Z,15.38
2018-11-29T19:10:59.884Z,18.87
2018-11-29T19:13:28.106Z,17.75
2018-11-29T19:15:56.357Z,16.57
2018-11-29T19:18:24.659Z,20.08
2018-11-29T19:20:52.884Z,21.02
2018-11-29T19:23:21.819Z,19.52
2018-11-29T19:25:50.155Z,19.40
2018-11-29T19:28:18.421Z,17.50
2018-11-29T19:30:46.719Z,17.82
2018-11-29T19:33:18.127Z,19.77
2018-11-29T19:35:47.750Z,17.37
2018-11-29T19:38:15.943Z,16.30
2018-11-29T19:40:44.546Z,14.40
2018-11-29T19:43:12.850Z,15.75
2018-11-29T19:45:41.095Z,16.48
2018-11-29T19:48:09.862Z,18.65
2018-11-29T19:50:38.217Z,18.75
2018-11-29T19:53:09.291Z,17.42
2018-11-29T19:55:37.560Z,18.40
2018-11-29T19:58:06.820Z,16.97
2018-11-29T20:00:35.511Z,20.08
2018-11-29T20:03:03.768Z,17.35
2018-11-29T20:05:32.107Z,17.55
2018-11-29T20:08:00.376Z,15.60
2018-11-29T20:10:28.592Z,15.88
2018-11-29T20:13:02.106Z,16.37
2018-11-29T20:15:30.380Z,57.90
2018-11-29T20:17:58.955Z,20.48
2018-11-29T20:20:27.250Z,16.90
2018-11-29T20:22:56.561Z,13.60
2018-11-29T20:25:25.989Z,17.25
2018-11-29T20:27:54.293Z,19.98
2018-11-29T20:30:23.981Z,19.45
2018-11-29T20:32:54.270Z,19.50
2018-11-29T20:35:23.474Z,17.82
2018-11-29T20:37:52.877Z,21.10
2018-11-29T20:40:24.306Z,16.93
2018-11-29T20:42:53.822Z,18.10
2018-11-29T20:45:26.509Z,24.75
2018-11-29T20:47:54.733Z,15.65
2018-11-29T20:50:24.506Z,15.23
2018-11-29T20:52:54.857Z,22.00
2018-11-29T20:55:26.475Z,16.60
2018-11-29T20:57:55.189Z,17.15
2018-11-29T21:00:23.704Z,17.77
2018-11-29T21:02:52.051Z,18.48
2018-11-29T21:05:21.499Z,18.77
2018-11-29T21:07:51.913Z,17.50
2018-11-29T21:10:22.985Z,16.42
2018-11-29T21:12:51.210Z,19.20
2018-11-29T21:15:19.745Z,18.25
2018-11-29T21:17:48.151Z,18.67
2018-11-29T21:20:17.319Z,18.70
2018-11-29T21:22:46.937Z,20.15
2018-11-29T21:25:17.427Z,19.17
2018-11-29T21:27:46.271Z,17.80
2018-11-29T21:30:15.648Z,19.92
2018-11-29T21:32:44.059Z,21.93
2018-11-29T21:35:14.468Z,17.52
2018-11-29T21:37:43.526Z,19.10
2018-11-29T21:40:21.369Z,14.80
2018-11-29T21:42:49.646Z,24.07
2018-11-29T21:45:17.974Z,15.23
2018-11-29T21:47:46.218Z,20.15
2018-11-29T21:50:14.537Z,18.07
2018-11-29T21:52:42.744Z,18.25
2018-11-29T21:55:10.930Z,21.30
2018-11-29T21:57:39.605Z,17.92
2018-11-29T22:00:11.776Z,18.60
2018-11-29T22:02:41.771Z,17.45
2018-11-29T22:05:09.338Z,16.70
2018-11-29T22:07:37.500Z,20.92
2018-11-29T22:10:05.684Z,22.48
2018-11-29T22:12:33.895Z,19.00
2018-11-29T22:15:02.019Z,18.37
2018-11-29T22:17:30.189Z,19.75
2018-11-29T22:19:58.567Z,19.48
2018-11-29T22:22:28.383Z,17.65
2018-11-29T22:24:54.932Z,16.40
2018-11-29T22:27:23.092Z,20.75
2018-11-29T22:29:52.004Z,17.50
2018-11-29T22:32:20.198Z,18.55
2018-11-29T22:34:48.333Z,14.00
2018-11-29T22:37:16.536Z,19.35
2018-11-29T22:39:44.739Z,18.70
2018-11-29T22:42:12.849Z,22.00
2018-11-29T22:44:41.131Z,19.23
2018-11-29T22:47:09.268Z,24.85
2018-11-29T22:49:37.453Z,21.02
2018-11-29T22:52:05.845Z,23.40
2018-11-29T22:54:34.021Z,16.93
2018-11-29T22:57:02.234Z,20.77
2018-11-29T22:59:30.415Z,19.73
2018-11-29T23:01:58.580Z,17.62
2018-11-29T23:04:26.770Z,24.10
2018-11-29T23:06:54.965Z,18.20
2018-11-29T23:09:23.215Z,16.40
2018-11-29T23:11:51.365Z,18.32
2018-11-29T23:14:19.515Z,17.37
2018-11-29T23:16:47.682Z,19.02
2018-11-29T23:19:15.824Z,20.68
2018-11-29T23:21:44.028Z,15.80
2018-11-29T23:24:12.123Z,18.12
2018-11-29T23:26:40.305Z,16.32
2018-11-29T23:29:08.436Z,16.67
2018-11-29T23:31:36.741Z,19.95
2018-11-29T23:34:04.990Z,20.00
2018-11-29T23:36:33.251Z,17.62
2018-11-29T23:39:02.227Z,21.35
2018-11-29T23:41:30.469Z,18.85
2018-11-29T23:43:58.704Z,19.90
2018-11-29T23:46:26.862Z,16.27
2018-11-29T23:48:55.015Z,18.05
2018-11-29T23:51:24.033Z,12.58
2018-11-29T23:53:52.179Z,17.27
2018-11-29T23:56:20.333Z,22.10
2018-11-29T23:58:48.466Z,20.35
